createdAt,value
2019-01-29T00:00:48.368Z,93495.28
2019-01-29T00:03:21.500Z,93507.98
2019-01-29T00:05:54.679Z,93499.95
2019-01-29T00:08:27.924Z,93502.41
2019-01-29T00:11:00.961Z,93502.91
2019-01-29T00:13:34.000Z,93516.19
2019-01-29T00:16:07.262Z,93516.74
2019-01-29T00:18:40.571Z,93519.24
2019-01-29T00:21:13.782Z,93530.37
2019-01-29T00:23:46.743Z,93522.27
2019-01-29T00:26:19.927Z,93523.41
2019-01-29T00:28:53.310Z,93540.52
2019-01-29T00:31:26.612Z,93534.11
2019-01-29T00:33:59.999Z,93533.52
2019-01-29T00:36:33.540Z,93542.39
2019-01-29T00:39:09.879Z,93544.55
2019-01-29T00:41:43.024Z,93535.13
2019-01-29T00:44:16.090Z,93548.97
2019-01-29T00:46:49.110Z,93544.05
2019-01-29T00:49:22.759Z,93544.97
2019-01-29T00:51:56.151Z,93540.23
2019-01-29T00:54:29.147Z,93540.22
2019-01-29T00:57:02.075Z,93547.24
2019-01-29T00:59:35.349Z,93546.58
2019-01-29T01:02:08.363Z,93537.95
2019-01-29T01:04:41.588Z,93545.70
2019-01-29T01:07:14.874Z,93548.52
2019-01-29T01:09:56.823Z,93532.48
2019-01-29T01:12:22.831Z,93552.96
2019-01-29T01:14:56.089Z,93558.49
2019-01-29T01:17:29.128Z,93551.47
2019-01-29T01:20:02.152Z,93556.52
2019-01-29T01:22:35.437Z,93550.83
2019-01-29T01:25:09.661Z,93553.13
2019-01-29T01:27:42.633Z,93556.82
2019-01-29T01:30:19.110Z,93551.73
2019-01-29T01:32:51.907Z,93551.33
2019-01-29T01:35:24.824Z,93572.10
2019-01-29T01:37:58.764Z,93566.88
2019-01-29T01:40:31.970Z,93549.98
2019-01-29T01:43:04.829Z,93555.64
2019-01-29T01:45:37.859Z,93566.88
2019-01-29T01:48:10.863Z,93569.09
2019-01-29T01:50:43.660Z,93569.09
2019-01-29T01:53:16.829Z,93560.52
2019-01-29T01:55:50.987Z,93555.00
2019-01-29T01:58:24.053Z,93549.21
2019-01-29T02:00:57.082Z,93558.72
2019-01-29T02:03:30.356Z,93549.81
2019-01-29T02:06:03.567Z,93549.22
2019-01-29T02:08:36.874Z,93554.99
2019-01-29T02:11:10.002Z,93555.22
2019-01-29T02:13:43.337Z,93555.70
2019-01-29T02:16:16.413Z,93552.25
2019-01-29T02:18:49.496Z,93555.73
2019-01-29T02:21:22.547Z,93538.97
2019-01-29T02:23:55.877Z,93531.81
2019-01-29T02:26:29.054Z,93522.84
2019-01-29T02:29:02.122Z,93534.89
2019-01-29T02:31:36.515Z,93534.80
2019-01-29T02:34:09.809Z,93544.41
2019-01-29T02:36:44.571Z,93548.73
2019-01-29T02:39:17.313Z,93548.20
2019-01-29T02:41:50.177Z,93564.16
2019-01-29T02:44:23.126Z,93550.05
2019-01-29T02:46:56.076Z,93535.98
2019-01-29T02:49:29.227Z,93547.55
2019-01-29T02:52:02.903Z,93548.30
2019-01-29T02:54:36.997Z,93540.23
2019-01-29T02:57:10.069Z,93547.78
2019-01-29T02:59:42.949Z,93536.98
2019-01-29T03:02:15.793Z,93547.94
2019-01-29T03:04:48.613Z,93540.66
2019-01-29T03:07:21.623Z,93551.86
2019-01-29T03:09:54.812Z,93540.42
2019-01-29T03:12:29.076Z,93542.17
2019-01-29T03:15:01.944Z,93549.24
2019-01-29T03:17:34.961Z,93550.48
2019-01-29T03:20:10.036Z,93552.86
2019-01-29T03:22:42.844Z,93545.94
2019-01-29T03:25:16.257Z,93553.94
2019-01-29T03:27:49.410Z,93551.44
2019-01-29T03:30:23.340Z,93550.47
2019-01-29T03:32:56.224Z,93563.10
2019-01-29T03:35:29.418Z,93551.57
2019-01-29T03:38:03.621Z,93546.93
2019-01-29T03:40:36.835Z,93549.83
2019-01-29T03:43:11.280Z,93549.88
2019-01-29T03:45:44.403Z,93543.45
2019-01-29T03:48:17.307Z,93539.52
2019-01-29T03:50:50.514Z,93548.69
2019-01-29T03:53:23.580Z,93548.06
2019-01-29T03:55:57.118Z,93550.84
2019-01-29T03:58:30.268Z,93547.61
2019-01-29T04:01:03.228Z,93547.72
2019-01-29T04:03:36.378Z,93558.89
2019-01-29T04:06:09.449Z,93560.79
2019-01-29T04:08:42.547Z,93558.26
2019-01-29T04:11:16.120Z,93563.16
2019-01-29T04:13:49.525Z,93560.90
2019-01-29T04:16:22.617Z,93564.20
2019-01-29T04:19:16.076Z,93567.81
2019-01-29T04:21:49.547Z,93566.47
2019-01-29T04:24:22.476Z,93566.25
2019-01-29T04:26:55.587Z,93570.94
2019-01-29T04:29:28.718Z,93565.48
2019-01-29T04:32:01.894Z,93574.08
2019-01-29T04:34:35.041Z,93578.88
2019-01-29T04:37:08.407Z,93586.11
2019-01-29T04:39:41.639Z,93586.42
2019-01-29T04:42:14.672Z,93576.18
2019-01-29T04:44:47.605Z,93575.53
2019-01-29T04:47:21.670Z,93585.46
2019-01-29T04:49:54.630Z,93583.20
2019-01-29T04:52:27.711Z,93584.81
2019-01-29T04:55:02.285Z,93581.25
2019-01-29T04:57:35.312Z,93578.76
2019-01-29T05:00:15.697Z,93584.17
2019-01-29T05:02:48.750Z,93586.16
2019-01-29T05:05:22.865Z,93587.25
2019-01-29T05:07:56.277Z,93592.31
2019-01-29T05:10:29.576Z,93586.16
2019-01-29T05:13:02.746Z,93596.41
2019-01-29T05:15:35.774Z,93599.83
2019-01-29T05:18:08.971Z,93609.50
2019-01-29T05:20:42.095Z,93615.97
2019-01-29T05:23:15.624Z,93608.67
2019-01-29T05:25:48.786Z,93607.98
2019-01-29T05:28:21.684Z,93612.67
2019-01-29T05:30:55.003Z,93614.52
2019-01-29T05:33:28.392Z,93612.36
2019-01-29T05:36:01.737Z,93608.39
2019-01-29T05:38:34.948Z,93618.33
2019-01-29T05:41:08.242Z,93616.23
2019-01-29T05:43:41.279Z,93621.73
2019-01-29T05:46:14.292Z,93620.77
2019-01-29T05:48:47.441Z,93610.36
2019-01-29T05:51:20.801Z,93612.45
2019-01-29T05:53:54.192Z,93626.11
2019-01-29T05:56:27.275Z,93622.51
2019-01-29T05:59:00.324Z,93623.19
2019-01-29T06:01:33.520Z,93620.82
2019-01-29T06:04:06.677Z,93606.34
2019-01-29T06:06:39.634Z,93617.91
2019-01-29T06:09:12.936Z,93640.09
2019-01-29T06:11:46.250Z,93643.07
2019-01-29T06:14:19.104Z,93654.85
2019-01-29T06:16:52.277Z,93639.14
2019-01-29T06:19:25.619Z,93640.80
2019-01-29T06:22:04.527Z,93631.80
2019-01-29T06:24:42.699Z,93637.50
2019-01-29T06:27:23.376Z,93632.80
2019-01-29T06:29:59.851Z,93635.08
2019-01-29T06:32:39.831Z,93643.17
2019-01-29T06:35:17.131Z,93644.80
2019-01-29T06:37:55.753Z,93647.99
2019-01-29T06:40:31.099Z,93643.93
2019-01-29T06:43:07.356Z,93642.37
2019-01-29T06:45:45.978Z,93644.20
2019-01-29T06:48:26.180Z,93646.05
2019-01-29T06:51:02.179Z,93651.86
2019-01-29T06:53:45.535Z,93659.76
2019-01-29T06:56:23.805Z,93657.34
2019-01-29T06:59:01.032Z,93660.84
2019-01-29T07:01:37.934Z,93662.89
2019-01-29T07:04:19.042Z,93663.81
2019-01-29T07:06:54.532Z,93658.83
2019-01-29T07:09:32.194Z,93664.87
2019-01-29T07:12:08.837Z,93664.22
2019-01-29T07:14:43.573Z,93668.04
2019-01-29T07:17:36.362Z,93654.51
2019-01-29T07:20:13.861Z,93658.34
2019-01-29T07:22:46.279Z,93656.55
2019-01-29T07:25:18.676Z,93657.98
2019-01-29T07:27:51.412Z,93646.67
2019-01-29T07:30:27.749Z,93656.24
2019-01-29T07:33:00.266Z,93669.15
2019-01-29T07:35:33.082Z,93664.52
2019-01-29T07:38:05.631Z,93677.39
2019-01-29T07:40:38.205Z,93679.22
2019-01-29T07:43:10.377Z,93669.78
2019-01-29T07:45:42.984Z,93679.91
2019-01-29T07:48:16.018Z,93681.03
2019-01-29T07:50:48.423Z,93672.40
2019-01-29T07:53:21.273Z,93679.59
2019-01-29T07:55:53.832Z,93684.20
2019-01-29T07:58:26.465Z,93680.41
2019-01-29T08:00:58.795Z,93674.04
2019-01-29T08:03:31.246Z,93692.77
2019-01-29T08:06:04.234Z,93683.84
2019-01-29T08:08:37.050Z,93685.94
2019-01-29T08:11:09.578Z,93710.09
2019-01-29T08:13:42.121Z,93694.34
2019-01-29T08:16:15.589Z,93693.61
2019-01-29T08:18:48.091Z,93716.33
2019-01-29T08:21:21.462Z,93695.22
2019-01-29T08:23:54.977Z,93706.48
2019-01-29T08:26:27.515Z,93706.23
2019-01-29T08:28:59.848Z,93710.28
2019-01-29T08:31:32.279Z,93714.27
2019-01-29T08:34:05.934Z,93703.78
2019-01-29T08:36:38.855Z,93728.84
2019-01-29T08:39:12.466Z,93730.28
2019-01-29T08:41:47.672Z,93732.81
2019-01-29T08:44:22.488Z,93724.60
2019-01-29T08:46:55.556Z,93726.06
2019-01-29T08:49:28.550Z,93742.89
2019-01-29T08:52:00.663Z,93739.14
2019-01-29T08:54:33.376Z,93722.21
2019-01-29T08:57:06.053Z,93745.06
2019-01-29T08:59:38.565Z,93749.52
2019-01-29T09:02:11.036Z,93750.09
2019-01-29T09:04:44.079Z,93751.76
2019-01-29T09:07:17.139Z,93743.62
2019-01-29T09:09:50.155Z,93752.59
2019-01-29T09:12:23.414Z,93759.50
2019-01-29T09:14:56.050Z,93745.47
2019-01-29T09:17:28.576Z,93760.14
2019-01-29T09:20:03.131Z,93763.26
2019-01-29T09:22:34.919Z,93750.57
2019-01-29T09:25:08.935Z,93752.55
2019-01-29T09:27:41.648Z,93756.87
2019-01-29T09:30:16.782Z,93762.02
2019-01-29T09:32:49.978Z,93758.86
2019-01-29T09:35:24.333Z,93757.20
2019-01-29T09:37:56.640Z,93760.14
2019-01-29T09:40:29.191Z,93764.03
2019-01-29T09:43:01.815Z,93758.69
2019-01-29T09:45:34.662Z,93749.42
2019-01-29T09:48:07.871Z,93757.28
2019-01-29T09:50:40.733Z,93740.28
2019-01-29T09:53:13.546Z,93743.03
2019-01-29T09:55:46.400Z,93737.89
2019-01-29T09:58:19.031Z,93743.59
2019-01-29T10:00:51.681Z,93739.14
2019-01-29T10:03:24.592Z,93723.70
2019-01-29T10:05:57.423Z,93730.56
2019-01-29T10:08:30.092Z,93732.78
2019-01-29T10:11:03.488Z,93730.48
2019-01-29T10:13:36.222Z,93725.27
2019-01-29T10:16:09.065Z,93720.29
2019-01-29T10:18:41.777Z,93728.94
2019-01-29T10:21:14.668Z,93717.37
2019-01-29T10:23:49.600Z,93715.72
2019-01-29T10:26:22.298Z,93718.88
2019-01-29T10:28:55.039Z,93710.94
2019-01-29T10:31:27.633Z,93723.34
2019-01-29T10:34:02.467Z,93716.88
2019-01-29T10:36:36.497Z,93714.22
2019-01-29T10:39:11.920Z,93713.26
2019-01-29T10:41:45.840Z,93697.70
2019-01-29T10:44:18.385Z,93706.55
2019-01-29T10:46:50.838Z,93696.52
2019-01-29T10:49:23.601Z,93692.50
2019-01-29T10:51:56.094Z,93698.20
2019-01-29T10:54:30.573Z,93691.42
2019-01-29T10:57:04.025Z,93694.29
2019-01-29T10:59:47.573Z,93695.81
2019-01-29T11:02:21.259Z,93686.22
2019-01-29T11:04:54.071Z,93688.14
2019-01-29T11:07:26.612Z,93682.88
2019-01-29T11:09:59.401Z,93677.57
2019-01-29T11:12:32.565Z,93677.23
2019-01-29T11:15:12.337Z,93674.72
2019-01-29T11:17:45.080Z,93669.98
2019-01-29T11:20:19.582Z,93668.05
2019-01-29T11:23:05.338Z,93663.83
2019-01-29T11:25:45.779Z,93661.16
2019-01-29T11:28:18.533Z,93653.66
2019-01-29T11:30:51.188Z,93657.09
2019-01-29T11:33:23.742Z,93659.92
2019-01-29T11:35:56.756Z,93658.34
2019-01-29T11:38:29.086Z,93659.80
2019-01-29T11:41:02.529Z,93662.33
2019-01-29T11:43:34.859Z,93667.59
2019-01-29T11:46:08.418Z,93664.11
2019-01-29T11:48:40.811Z,93668.09
2019-01-29T11:51:13.298Z,93659.36
2019-01-29T11:53:45.779Z,93664.38
2019-01-29T11:56:18.306Z,93664.54
2019-01-29T11:58:50.412Z,93671.37
2019-01-29T12:01:25.794Z,93663.53
2019-01-29T12:03:58.142Z,93661.31
2019-01-29T12:06:30.401Z,93661.09
2019-01-29T12:09:02.983Z,93663.22
2019-01-29T12:11:35.474Z,93659.25
2019-01-29T12:14:08.140Z,93662.67
2019-01-29T12:16:40.613Z,93663.07
2019-01-29T12:19:13.096Z,93664.80
2019-01-29T12:21:45.569Z,93660.94
2019-01-29T12:24:18.072Z,93654.88
2019-01-29T12:26:50.608Z,93663.51
2019-01-29T12:29:25.685Z,93656.42
2019-01-29T12:31:57.947Z,93651.36
2019-01-29T12:34:30.280Z,93657.88
2019-01-29T12:37:02.614Z,93662.15
2019-01-29T12:39:35.234Z,93656.48
2019-01-29T12:42:07.606Z,93656.34
2019-01-29T12:44:40.744Z,93657.67
2019-01-29T12:47:12.989Z,93654.67
2019-01-29T12:49:46.904Z,93658.00
2019-01-29T12:52:28.716Z,93656.10
2019-01-29T12:55:01.210Z,93654.94
2019-01-29T12:57:35.237Z,93659.45
2019-01-29T13:00:14.449Z,93656.09
2019-01-29T13:02:47.002Z,93660.30
2019-01-29T13:05:19.819Z,93664.53
2019-01-29T13:07:52.663Z,93654.13
2019-01-29T13:10:25.355Z,93652.19
2019-01-29T13:12:58.959Z,93644.92
2019-01-29T13:15:31.864Z,93649.48
2019-01-29T13:18:05.214Z,93650.06
2019-01-29T13:20:37.757Z,93652.20
2019-01-29T13:23:10.712Z,93647.00
2019-01-29T13:25:43.538Z,93651.55
2019-01-29T13:28:16.501Z,93658.77
2019-01-29T13:30:48.855Z,93657.58
2019-01-29T13:33:21.887Z,93657.55
2019-01-29T13:35:55.625Z,93651.54
2019-01-29T13:38:32.460Z,93653.88
2019-01-29T13:41:05.204Z,93663.80
2019-01-29T13:43:38.089Z,93659.37
2019-01-29T13:46:10.732Z,93663.47
2019-01-29T13:48:43.012Z,93667.45
2019-01-29T13:51:15.686Z,93668.63
2019-01-29T13:53:47.886Z,93661.79
2019-01-29T13:56:20.542Z,93657.30
2019-01-29T13:58:52.740Z,93663.05
2019-01-29T14:01:25.539Z,93670.61
2019-01-29T14:04:05.773Z,93674.27
2019-01-29T14:06:32.256Z,93667.34
2019-01-29T14:09:07.061Z,93659.63
2019-01-29T14:11:43.525Z,93664.36
2019-01-29T14:14:16.269Z,93669.45
2019-01-29T14:16:48.592Z,93664.86
2019-01-29T14:19:21.816Z,93662.36
2019-01-29T14:21:54.640Z,93659.78
2019-01-29T14:24:27.236Z,93662.11
2019-01-29T14:27:00.205Z,93663.84
2019-01-29T14:29:32.851Z,93658.59
2019-01-29T14:32:06.331Z,93657.45
2019-01-29T14:34:43.065Z,93657.03
2019-01-29T14:37:16.333Z,93661.23
2019-01-29T14:40:21.511Z,93661.78
2019-01-29T14:42:54.677Z,93662.66
2019-01-29T14:45:30.111Z,93661.78
2019-01-29T14:48:03.255Z,93667.84
2019-01-29T14:50:36.665Z,93655.45
2019-01-29T14:53:10.171Z,93655.73
2019-01-29T14:55:42.724Z,93656.83
2019-01-29T14:58:15.403Z,93658.27
2019-01-29T15:00:48.484Z,93655.56
2019-01-29T15:03:22.848Z,93654.55
2019-01-29T15:05:56.737Z,93660.01
2019-01-29T15:08:29.419Z,93660.23
2019-01-29T15:11:03.424Z,93658.48
2019-01-29T15:13:36.112Z,93663.59
2019-01-29T15:16:49.549Z,93659.09
2019-01-29T15:19:24.073Z,93658.50
2019-01-29T15:21:57.750Z,93664.71
2019-01-29T15:24:29.989Z,93666.92
2019-01-29T15:27:05.813Z,93668.50
2019-01-29T15:29:36.506Z,93671.86
2019-01-29T15:32:08.864Z,93673.53
2019-01-29T15:34:41.175Z,93678.87
2019-01-29T15:37:13.875Z,93676.14
2019-01-29T15:39:46.468Z,93678.78
2019-01-29T15:42:18.740Z,93676.78
2019-01-29T15:44:51.141Z,93674.77
2019-01-29T15:47:23.314Z,93671.65
2019-01-29T15:49:56.435Z,93668.47
2019-01-29T15:52:28.693Z,93667.06
2019-01-29T15:55:01.122Z,93669.99
2019-01-29T15:57:33.418Z,93666.53
2019-01-29T16:00:08.447Z,93662.92
2019-01-29T16:02:40.645Z,93663.80
2019-01-29T16:05:16.859Z,93659.06
2019-01-29T16:08:01.826Z,93657.30
2019-01-29T16:10:39.802Z,93658.38
2019-01-29T16:13:09.795Z,93658.39
2019-01-29T16:15:42.806Z,93661.55
2019-01-29T16:18:15.454Z,93657.85
2019-01-29T16:20:47.692Z,93657.17
2019-01-29T16:23:19.900Z,93659.20
2019-01-29T16:25:52.302Z,93659.33
2019-01-29T16:28:24.621Z,93654.44
2019-01-29T16:30:56.884Z,93658.84
2019-01-29T16:33:29.282Z,93658.03
2019-01-29T16:36:02.932Z,93663.38
2019-01-29T16:38:35.050Z,93655.41
2019-01-29T16:41:07.423Z,93654.84
2019-01-29T16:43:39.607Z,93656.80
2019-01-29T16:46:12.210Z,93652.75
2019-01-29T16:48:44.563Z,93651.78
2019-01-29T16:51:16.916Z,93651.86
2019-01-29T16:53:49.395Z,93655.94
2019-01-29T16:56:21.834Z,93655.89
2019-01-29T16:58:54.089Z,93653.94
2019-01-29T17:01:26.288Z,93655.32
2019-01-29T17:03:58.600Z,93649.56
2019-01-29T17:06:30.979Z,93644.76
2019-01-29T17:09:03.445Z,93640.17
2019-01-29T17:11:35.882Z,93644.05
2019-01-29T17:14:08.402Z,93644.27
2019-01-29T17:16:40.781Z,93646.91
2019-01-29T17:19:15.605Z,93647.96
2019-01-29T17:21:48.086Z,93647.91
2019-01-29T17:24:20.981Z,93643.34
2019-01-29T17:26:53.422Z,93645.39
2019-01-29T17:29:25.751Z,93639.75
2019-01-29T17:31:57.923Z,93639.72
2019-01-29T17:34:30.281Z,93633.85
2019-01-29T17:37:02.905Z,93632.78
2019-01-29T17:39:35.344Z,93632.56
2019-01-29T17:42:07.756Z,93627.56
2019-01-29T17:44:40.070Z,93625.19
2019-01-29T17:47:12.717Z,93629.69
2019-01-29T17:49:45.013Z,93627.27
2019-01-29T17:52:17.148Z,93624.87
2019-01-29T17:54:49.341Z,93624.16
2019-01-29T17:57:21.791Z,93617.39
2019-01-29T17:59:53.923Z,93609.23
2019-01-29T18:02:26.324Z,93610.63
2019-01-29T18:04:58.597Z,93608.81
2019-01-29T18:07:30.849Z,93604.61
2019-01-29T18:10:06.843Z,93606.08
2019-01-29T18:12:39.506Z,93600.92
2019-01-29T18:15:17.324Z,93606.54
2019-01-29T18:17:49.806Z,93605.34
2019-01-29T18:20:22.267Z,93608.46
2019-01-29T18:22:54.639Z,93613.14
2019-01-29T18:25:27.190Z,93602.36
2019-01-29T18:28:01.304Z,93606.16
2019-01-29T18:30:35.594Z,93611.16
2019-01-29T18:33:08.277Z,93615.45
2019-01-29T18:35:40.897Z,93620.11
2019-01-29T18:38:13.402Z,93606.50
2019-01-29T18:40:53.856Z,93612.17
2019-01-29T18:43:26.478Z,93612.27
2019-01-29T18:45:58.913Z,93615.06
2019-01-29T18:48:31.235Z,93612.87
2019-01-29T18:51:03.876Z,93609.14
2019-01-29T18:53:36.245Z,93612.25
2019-01-29T18:56:08.783Z,93615.22
2019-01-29T18:58:41.351Z,93617.30
2019-01-29T19:01:13.786Z,93621.92
2019-01-29T19:03:46.267Z,93620.80
2019-01-29T19:06:18.556Z,93616.70
2019-01-29T19:08:50.899Z,93614.50
2019-01-29T19:11:23.543Z,93620.08
2019-01-29T19:13:55.759Z,93606.77
2019-01-29T19:16:28.056Z,93604.83
2019-01-29T19:19:00.579Z,93604.48
2019-01-29T19:21:32.742Z,93599.14
2019-01-29T19:24:05.388Z,93600.72
2019-01-29T19:26:37.768Z,93590.98
2019-01-29T19:29:10.344Z,93593.53
2019-01-29T19:31:42.719Z,93588.91
2019-01-29T19:34:15.245Z,93589.55
2019-01-29T19:36:48.033Z,93585.45
2019-01-29T19:39:21.430Z,93588.48
2019-01-29T19:41:53.942Z,93581.93
2019-01-29T19:44:26.247Z,93579.29
2019-01-29T19:46:58.606Z,93576.97
2019-01-29T19:49:30.781Z,93576.75
2019-01-29T19:52:03.042Z,93574.06
2019-01-29T19:54:35.407Z,93570.45
2019-01-29T19:57:08.122Z,93572.14
2019-01-29T19:59:40.896Z,93568.72
2019-01-29T20:02:13.486Z,93564.94
2019-01-29T20:04:46.974Z,93569.27
2019-01-29T20:07:19.210Z,93571.38
2019-01-29T20:09:51.446Z,93568.56
2019-01-29T20:12:25.081Z,93565.99
2019-01-29T20:14:57.549Z,93561.98
2019-01-29T20:17:30.104Z,93559.97
2019-01-29T20:20:04.682Z,93556.88
2019-01-29T20:22:37.370Z,93556.11
2019-01-29T20:25:10.500Z,93560.84
2019-01-29T20:27:42.822Z,93559.00
2019-01-29T20:30:19.999Z,93559.38
2019-01-29T20:32:53.963Z,93555.25
2019-01-29T20:35:26.411Z,93553.13
2019-01-29T20:37:59.034Z,93544.85
2019-01-29T20:40:31.722Z,93542.03
2019-01-29T20:43:07.350Z,93534.70
2019-01-29T20:45:40.234Z,93535.50
2019-01-29T20:48:12.614Z,93535.80
2019-01-29T20:50:45.022Z,93541.19
2019-01-29T20:53:17.566Z,93536.73
2019-01-29T20:55:49.922Z,93541.91
2019-01-29T20:58:22.608Z,93535.34
2019-01-29T21:00:55.470Z,93535.30
2019-01-29T21:03:27.983Z,93538.69
2019-01-29T21:06:02.136Z,93534.53
2019-01-29T21:08:34.482Z,93527.39
2019-01-29T21:11:07.504Z,93526.54
2019-01-29T21:13:41.483Z,93515.25
2019-01-29T21:16:13.901Z,93514.05
2019-01-29T21:18:46.250Z,93511.11
2019-01-29T21:21:18.997Z,93510.87
2019-01-29T21:23:51.264Z,93512.36
2019-01-29T21:26:23.744Z,93520.25
2019-01-29T21:29:02.816Z,93508.38
2019-01-29T21:31:32.625Z,93514.48
2019-01-29T21:34:04.966Z,93523.25
2019-01-29T21:36:37.515Z,93516.30
2019-01-29T21:39:14.231Z,93513.91
2019-01-29T21:41:46.333Z,93518.22
2019-01-29T21:44:18.531Z,93495.28
2019-01-29T21:46:50.728Z,93509.85
2019-01-29T21:49:22.977Z,93498.99
2019-01-29T21:51:55.561Z,93515.32
2019-01-29T21:54:27.908Z,93505.23
2019-01-29T21:57:00.197Z,93478.98
2019-01-29T21:59:32.424Z,93493.66
2019-01-29T22:02:05.028Z,93502.06
2019-01-29T22:04:37.349Z,93494.14
2019-01-29T22:07:09.773Z,93490.16
2019-01-29T22:09:42.030Z,93483.38
2019-01-29T22:12:14.357Z,93487.31
2019-01-29T22:14:46.686Z,93475.58
2019-01-29T22:17:18.823Z,93478.48
2019-01-29T22:19:51.452Z,93480.55
2019-01-29T22:22:24.099Z,93486.22
2019-01-29T22:24:56.291Z,93485.55
2019-01-29T22:27:28.551Z,93477.77
2019-01-29T22:30:00.872Z,93482.55
2019-01-29T22:32:33.006Z,93476.73
2019-01-29T22:35:05.764Z,93475.91
2019-01-29T22:37:38.272Z,93469.34
2019-01-29T22:40:15.427Z,93469.22
2019-01-29T22:42:47.838Z,93470.94
2019-01-29T22:58:05.141Z,93454.72
2019-01-29T23:01:40.974Z,93448.82
2019-01-29T23:04:37.290Z,93452.86
2019-01-29T23:07:32.953Z,93444.30
2019-01-29T23:10:11.535Z,93442.02
2019-01-29T23:12:44.650Z,93431.53
2019-01-29T23:15:20.100Z,93439.92
2019-01-29T23:17:53.333Z,93443.94
2019-01-29T23:20:26.710Z,93443.41
2019-01-29T23:23:00.980Z,93445.19
2019-01-29T23:25:34.185Z,93437.19
2019-01-29T23:28:07.673Z,93429.01
2019-01-29T23:30:42.049Z,93430.32
2019-01-29T23:33:15.202Z,93438.03
2019-01-29T23:35:48.304Z,93430.60
2019-01-29T23:38:21.455Z,93432.63
2019-01-29T23:40:54.254Z,93434.57
2019-01-29T23:43:27.468Z,93434.77
2019-01-29T23:46:00.440Z,93425.06
2019-01-29T23:48:33.595Z,93426.44
2019-01-29T23:51:06.639Z,93434.23
2019-01-29T23:53:40.285Z,93421.88
2019-01-29T23:56:13.358Z,93413.92
2019-01-29T23:58:46.158Z,93402.14
